sensor_id;sensor_type;location;lat;lon;timestamp;P1;durP1;ratioP1;P2;durP2;ratioP2
37971;SDS011;23794;48.234;8.344;2023-04-23T00:02:16;2.67;;;0.90;;
37971;SDS011;23794;48.234;8.344;2023-04-23T00:04:48;3.70;;;1.65;;
37971;SDS011;23794;48.234;8.344;2023-04-23T00:07:18;2.70;;;1.15;;
37971;SDS011;23794;48.234;8.344;2023-04-23T00:09:45;2.70;;;0.70;;
37971;SDS011;23794;48.234;8.344;2023-04-23T00:12:12;2.03;;;0.90;;
37971;SDS011;23794;48.234;8.344;2023-04-23T00:14:39;1.92;;;0.90;;
37971;SDS011;23794;48.234;8.344;2023-04-23T00:17:06;3.13;;;1.05;;
37971;SDS011;23794;48.234;8.344;2023-04-23T00:19:33;2.67;;;0.93;;
37971;SDS011;23794;48.234;8.344;2023-04-23T00:21:59;1.95;;;0.90;;
37971;SDS011;23794;48.234;8.344;2023-04-23T00:24:26;2.38;;;0.82;;
37971;SDS011;23794;48.234;8.344;2023-04-23T00:26:52;2.25;;;1.02;;
37971;SDS011;23794;48.234;8.344;2023-04-23T00:29:19;3.28;;;0.73;;
37971;SDS011;23794;48.234;8.344;2023-04-23T00:31:45;1.00;;;0.77;;
37971;SDS011;23794;48.234;8.344;2023-04-23T00:34:12;3.17;;;1.00;;
37971;SDS011;23794;48.234;8.344;2023-04-23T00:36:39;2.38;;;1.13;;
37971;SDS011;23794;48.234;8.344;2023-04-23T00:39:05;2.25;;;1.02;;
37971;SDS011;23794;48.234;8.344;2023-04-23T00:41:32;2.45;;;0.70;;
37971;SDS011;23794;48.234;8.344;2023-04-23T00:43:59;1.52;;;1.10;;
37971;SDS011;23794;48.234;8.344;2023-04-23T00:46:26;2.33;;;1.00;;
37971;SDS011;23794;48.234;8.344;2023-04-23T00:48:54;1.48;;;1.00;;
37971;SDS011;23794;48.234;8.344;2023-04-23T00:51:21;1.65;;;1.10;;
37971;SDS011;23794;48.234;8.344;2023-04-23T00:53:50;2.03;;;1.00;;
37971;SDS011;23794;48.234;8.344;2023-04-23T00:56:19;3.03;;;1.00;;
37971;SDS011;23794;48.234;8.344;2023-04-23T00:58:48;1.92;;;0.98;;
37971;SDS011;23794;48.234;8.344;2023-04-23T01:01:15;1.45;;;1.00;;
37971;SDS011;23794;48.234;8.344;2023-04-23T01:03:48;1.60;;;0.93;;
37971;SDS011;23794;48.234;8.344;2023-04-23T01:06:18;1.65;;;0.95;;
37971;SDS011;23794;48.234;8.344;2023-04-23T01:08:45;2.55;;;1.20;;
37971;SDS011;23794;48.234;8.344;2023-04-23T01:11:12;2.17;;;0.88;;
37971;SDS011;23794;48.234;8.344;2023-04-23T01:13:40;2.67;;;1.00;;
37971;SDS011;23794;48.234;8.344;2023-04-23T01:16:08;2.97;;;1.10;;
37971;SDS011;23794;48.234;8.344;2023-04-23T01:18:36;5.10;;;1.45;;
37971;SDS011;23794;48.234;8.344;2023-04-23T01:21:04;7.07;;;2.20;;
37971;SDS011;23794;48.234;8.344;2023-04-23T01:23:31;4.57;;;1.40;;
37971;SDS011;23794;48.234;8.344;2023-04-23T01:25:57;3.85;;;1.50;;
37971;SDS011;23794;48.234;8.344;2023-04-23T01:28:25;2.35;;;1.40;;
37971;SDS011;23794;48.234;8.344;2023-04-23T01:30:52;2.03;;;1.10;;
37971;SDS011;23794;48.234;8.344;2023-04-23T01:33:19;3.15;;;1.63;;
37971;SDS011;23794;48.234;8.344;2023-04-23T01:35:46;3.50;;;1.05;;
37971;SDS011;23794;48.234;8.344;2023-04-23T01:38:14;2.10;;;1.13;;
37971;SDS011;23794;48.234;8.344;2023-04-23T01:40:42;2.70;;;0.90;;
37971;SDS011;23794;48.234;8.344;2023-04-23T01:43:09;4.10;;;0.90;;
37971;SDS011;23794;48.234;8.344;2023-04-23T01:45:36;1.30;;;0.93;;
37971;SDS011;23794;48.234;8.344;2023-04-23T01:48:02;1.50;;;0.52;;
37971;SDS011;23794;48.234;8.344;2023-04-23T01:50:29;1.45;;;0.73;;
37971;SDS011;23794;48.234;8.344;2023-04-23T01:52:56;1.25;;;0.60;;
37971;SDS011;23794;48.234;8.344;2023-04-23T01:55:22;2.10;;;1.45;;
37971;SDS011;23794;48.234;8.344;2023-04-23T01:57:49;1.33;;;0.60;;
37971;SDS011;23794;48.234;8.344;2023-04-23T02:00:16;0.90;;;0.45;;
37971;SDS011;23794;48.234;8.344;2023-04-23T02:02:43;1.27;;;0.63;;
37971;SDS011;23794;48.234;8.344;2023-04-23T02:05:11;1.73;;;0.80;;
37971;SDS011;23794;48.234;8.344;2023-04-23T02:07:47;0.60;;;0.50;;
37971;SDS011;23794;48.234;8.344;2023-04-23T02:10:16;1.00;;;0.60;;
37971;SDS011;23794;48.234;8.344;2023-04-23T02:12:44;2.53;;;0.60;;
37971;SDS011;23794;48.234;8.344;2023-04-23T02:15:10;0.93;;;0.55;;
37971;SDS011;23794;48.234;8.344;2023-04-23T02:17:40;0.70;;;0.47;;
37971;SDS011;23794;48.234;8.344;2023-04-23T02:20:07;0.90;;;0.70;;
37971;SDS011;23794;48.234;8.344;2023-04-23T02:22:35;0.43;;;0.40;;
37971;SDS011;23794;48.234;8.344;2023-04-23T02:25:03;2.00;;;0.40;;
37971;SDS011;23794;48.234;8.344;2023-04-23T02:27:32;0.70;;;0.40;;
37971;SDS011;23794;48.234;8.344;2023-04-23T02:29:58;1.08;;;0.57;;
37971;SDS011;23794;48.234;8.344;2023-04-23T02:32:25;1.85;;;0.50;;
37971;SDS011;23794;48.234;8.344;2023-04-23T02:34:53;0.60;;;0.50;;
37971;SDS011;23794;48.234;8.344;2023-04-23T02:37:19;1.58;;;0.73;;
37971;SDS011;23794;48.234;8.344;2023-04-23T02:39:46;0.93;;;0.47;;
37971;SDS011;23794;48.234;8.344;2023-04-23T02:42:12;1.25;;;0.43;;
37971;SDS011;23794;48.234;8.344;2023-04-23T02:44:39;1.52;;;0.50;;
37971;SDS011;23794;48.234;8.344;2023-04-23T02:47:07;0.93;;;0.40;;
37971;SDS011;23794;48.234;8.344;2023-04-23T02:49:33;0.40;;;0.30;;
37971;SDS011;23794;48.234;8.344;2023-04-23T02:52:00;0.55;;;0.35;;
37971;SDS011;23794;48.234;8.344;2023-04-23T02:54:26;0.90;;;0.65;;
37971;SDS011;23794;48.234;8.344;2023-04-23T02:56:53;1.35;;;0.43;;
37971;SDS011;23794;48.234;8.344;2023-04-23T02:59:19;0.80;;;0.60;;
37971;SDS011;23794;48.234;8.344;2023-04-23T03:01:46;1.23;;;0.52;;
37971;SDS011;23794;48.234;8.344;2023-04-23T03:04:13;0.63;;;0.40;;
37971;SDS011;23794;48.234;8.344;2023-04-23T03:06:40;1.17;;;0.60;;
37971;SDS011;23794;48.234;8.344;2023-04-23T03:09:10;0.60;;;0.40;;
37971;SDS011;23794;48.234;8.344;2023-04-23T03:11:37;0.95;;;0.40;;
37971;SDS011;23794;48.234;8.344;2023-04-23T03:14:10;0.70;;;0.40;;
37971;SDS011;23794;48.234;8.344;2023-04-23T03:16:37;0.60;;;0.50;;
37971;SDS011;23794;48.234;8.344;2023-04-23T03:19:04;0.70;;;0.45;;
37971;SDS011;23794;48.234;8.344;2023-04-23T03:21:31;0.52;;;0.40;;
37971;SDS011;23794;48.234;8.344;2023-04-23T03:23:57;0.80;;;0.40;;
37971;SDS011;23794;48.234;8.344;2023-04-23T03:26:24;1.30;;;0.28;;
37971;SDS011;23794;48.234;8.344;2023-04-23T03:28:50;1.08;;;0.60;;
37971;SDS011;23794;48.234;8.344;2023-04-23T03:31:17;1.58;;;0.55;;
37971;SDS011;23794;48.234;8.344;2023-04-23T03:33:44;0.55;;;0.35;;
37971;SDS011;23794;48.234;8.344;2023-04-23T03:36:11;0.60;;;0.35;;
37971;SDS011;23794;48.234;8.344;2023-04-23T03:38:38;0.82;;;0.60;;
37971;SDS011;23794;48.234;8.344;2023-04-23T03:41:05;2.13;;;0.30;;
37971;SDS011;23794;48.234;8.344;2023-04-23T03:43:32;0.47;;;0.30;;
37971;SDS011;23794;48.234;8.344;2023-04-23T03:46:01;0.82;;;0.40;;
37971;SDS011;23794;48.234;8.344;2023-04-23T03:48:31;1.20;;;0.50;;
37971;SDS011;23794;48.234;8.344;2023-04-23T03:51:00;2.47;;;1.20;;
37971;SDS011;23794;48.234;8.344;2023-04-23T03:53:35;1.08;;;0.68;;
37971;SDS011;23794;48.234;8.344;2023-04-23T03:56:20;0.77;;;0.32;;
37971;SDS011;23794;48.234;8.344;2023-04-23T03:59:11;0.98;;;0.50;;
37971;SDS011;23794;48.234;8.344;2023-04-23T04:01:38;0.50;;;0.30;;
37971;SDS011;23794;48.234;8.344;2023-04-23T04:04:04;1.15;;;0.50;;
37971;SDS011;23794;48.234;8.344;2023-04-23T04:06:31;4.05;;;0.60;;
37971;SDS011;23794;48.234;8.344;2023-04-23T04:08:58;0.65;;;0.50;;
37971;SDS011;23794;48.234;8.344;2023-04-23T04:11:24;2.60;;;0.98;;
37971;SDS011;23794;48.234;8.344;2023-04-23T04:13:51;1.60;;;0.85;;
37971;SDS011;23794;48.234;8.344;2023-04-23T04:16:20;0.73;;;0.50;;
37971;SDS011;23794;48.234;8.344;2023-04-23T04:18:47;1.55;;;0.70;;
37971;SDS011;23794;48.234;8.344;2023-04-23T04:21:13;1.10;;;0.68;;
37971;SDS011;23794;48.234;8.344;2023-04-23T04:23:41;1.02;;;0.68;;
37971;SDS011;23794;48.234;8.344;2023-04-23T04:26:08;1.55;;;0.50;;
37971;SDS011;23794;48.234;8.344;2023-04-23T04:28:35;1.75;;;0.68;;
37971;SDS011;23794;48.234;8.344;2023-04-23T04:31:02;1.02;;;0.60;;
37971;SDS011;23794;48.234;8.344;2023-04-23T04:33:30;1.75;;;0.60;;
37971;SDS011;23794;48.234;8.344;2023-04-23T04:35:58;0.45;;;0.40;;
37971;SDS011;23794;48.234;8.344;2023-04-23T04:38:25;3.83;;;1.25;;
37971;SDS011;23794;48.234;8.344;2023-04-23T04:40:53;42.38;;;20.40;;
37971;SDS011;23794;48.234;8.344;2023-04-23T04:45:50;41.17;;;20.88;;
37971;SDS011;23794;48.234;8.344;2023-04-23T04:48:16;38.28;;;19.95;;
37971;SDS011;23794;48.234;8.344;2023-04-23T04:50:43;34.95;;;17.50;;
37971;SDS011;23794;48.234;8.344;2023-04-23T04:53:09;29.13;;;15.80;;
37971;SDS011;23794;48.234;8.344;2023-04-23T04:55:36;21.30;;;11.13;;
37971;SDS011;23794;48.234;8.344;2023-04-23T04:58:02;22.65;;;11.85;;
37971;SDS011;23794;48.234;8.344;2023-04-23T05:00:29;22.05;;;11.82;;
37971;SDS011;23794;48.234;8.344;2023-04-23T05:02:56;18.92;;;9.93;;
37971;SDS011;23794;48.234;8.344;2023-04-23T05:05:23;17.42;;;8.95;;
37971;SDS011;23794;48.234;8.344;2023-04-23T05:07:51;11.48;;;5.82;;
37971;SDS011;23794;48.234;8.344;2023-04-23T05:10:19;10.35;;;5.32;;
37971;SDS011;23794;48.234;8.344;2023-04-23T05:12:46;15.23;;;7.85;;
37971;SDS011;23794;48.234;8.344;2023-04-23T05:15:13;22.08;;;11.73;;
37971;SDS011;23794;48.234;8.344;2023-04-23T05:17:39;20.02;;;10.73;;
37971;SDS011;23794;48.234;8.344;2023-04-23T05:20:06;11.07;;;6.15;;
37971;SDS011;23794;48.234;8.344;2023-04-23T05:22:38;10.68;;;5.65;;
37971;SDS011;23794;48.234;8.344;2023-04-23T05:25:05;13.45;;;7.30;;
37971;SDS011;23794;48.234;8.344;2023-04-23T05:27:33;13.93;;;7.13;;
37971;SDS011;23794;48.234;8.344;2023-04-23T05:30:04;12.65;;;6.53;;
37971;SDS011;23794;48.234;8.344;2023-04-23T05:34:59;9.13;;;4.82;;
37971;SDS011;23794;48.234;8.344;2023-04-23T05:37:28;4.90;;;2.63;;
37971;SDS011;23794;48.234;8.344;2023-04-23T05:39:55;4.20;;;2.45;;
37971;SDS011;23794;48.234;8.344;2023-04-23T05:42:23;6.97;;;3.38;;
37971;SDS011;23794;48.234;8.344;2023-04-23T05:44:50;7.53;;;3.92;;
37971;SDS011;23794;48.234;8.344;2023-04-23T05:47:16;13.70;;;6.13;;
37971;SDS011;23794;48.234;8.344;2023-04-23T05:49:43;10.40;;;5.47;;
37971;SDS011;23794;48.234;8.344;2023-04-23T05:52:10;14.32;;;7.97;;
37971;SDS011;23794;48.234;8.344;2023-04-23T05:54:36;18.00;;;10.63;;
37971;SDS011;23794;48.234;8.344;2023-04-23T05:57:03;16.25;;;9.02;;
37971;SDS011;23794;48.234;8.344;2023-04-23T05:59:30;16.10;;;9.02;;
37971;SDS011;23794;48.234;8.344;2023-04-23T06:01:57;14.90;;;8.85;;
37971;SDS011;23794;48.234;8.344;2023-04-23T06:04:24;13.07;;;7.57;;
37971;SDS011;23794;48.234;8.344;2023-04-23T06:06:51;11.13;;;6.90;;
37971;SDS011;23794;48.234;8.344;2023-04-23T06:09:17;10.85;;;5.70;;
37971;SDS011;23794;48.234;8.344;2023-04-23T06:11:44;10.48;;;6.18;;
37971;SDS011;23794;48.234;8.344;2023-04-23T06:14:10;12.02;;;7.22;;
37971;SDS011;23794;48.234;8.344;2023-04-23T06:16:37;9.13;;;6.18;;
37971;SDS011;23794;48.234;8.344;2023-04-23T06:19:03;9.00;;;5.38;;
37971;SDS011;23794;48.234;8.344;2023-04-23T06:21:30;11.32;;;6.93;;
37971;SDS011;23794;48.234;8.344;2023-04-23T06:23:57;11.73;;;6.75;;
37971;SDS011;23794;48.234;8.344;2023-04-23T06:26:24;11.50;;;5.97;;
37971;SDS011;23794;48.234;8.344;2023-04-23T06:28:55;9.10;;;5.60;;
37971;SDS011;23794;48.234;8.344;2023-04-23T06:31:27;8.15;;;4.40;;
37971;SDS011;23794;48.234;8.344;2023-04-23T06:33:54;5.20;;;2.33;;
37971;SDS011;23794;48.234;8.344;2023-04-23T06:36:21;3.38;;;1.67;;
37971;SDS011;23794;48.234;8.344;2023-04-23T06:38:47;4.68;;;2.60;;
37971;SDS011;23794;48.234;8.344;2023-04-23T06:41:14;2.85;;;1.85;;
37971;SDS011;23794;48.234;8.344;2023-04-23T06:43:41;1.85;;;1.20;;
37971;SDS011;23794;48.234;8.344;2023-04-23T06:46:19;2.53;;;1.05;;
37971;SDS011;23794;48.234;8.344;2023-04-23T06:48:46;1.05;;;0.70;;
37971;SDS011;23794;48.234;8.344;2023-04-23T06:51:13;1.17;;;0.77;;
37971;SDS011;23794;48.234;8.344;2023-04-23T06:53:40;1.27;;;0.90;;
37971;SDS011;23794;48.234;8.344;2023-04-23T06:56:07;1.50;;;1.00;;
37971;SDS011;23794;48.234;8.344;2023-04-23T06:58:33;1.27;;;0.75;;
37971;SDS011;23794;48.234;8.344;2023-04-23T07:01:09;1.67;;;0.80;;
37971;SDS011;23794;48.234;8.344;2023-04-23T07:03:37;1.05;;;0.80;;
37971;SDS011;23794;48.234;8.344;2023-04-23T07:06:03;2.15;;;1.27;;
37971;SDS011;23794;48.234;8.344;2023-04-23T07:08:30;2.50;;;0.90;;
37971;SDS011;23794;48.234;8.344;2023-04-23T07:10:57;1.73;;;0.80;;
37971;SDS011;23794;48.234;8.344;2023-04-23T07:13:23;1.67;;;0.77;;
37971;SDS011;23794;48.234;8.344;2023-04-23T07:15:50;1.38;;;0.85;;
37971;SDS011;23794;48.234;8.344;2023-04-23T07:18:17;2.53;;;1.17;;
37971;SDS011;23794;48.234;8.344;2023-04-23T07:20:43;1.63;;;0.90;;
37971;SDS011;23794;48.234;8.344;2023-04-23T07:23:10;3.13;;;1.17;;
37971;SDS011;23794;48.234;8.344;2023-04-23T07:25:36;1.60;;;0.95;;
37971;SDS011;23794;48.234;8.344;2023-04-23T07:28:03;2.22;;;1.33;;
37971;SDS011;23794;48.234;8.344;2023-04-23T07:30:30;1.38;;;0.90;;
37971;SDS011;23794;48.234;8.344;2023-04-23T07:32:56;1.80;;;0.90;;
37971;SDS011;23794;48.234;8.344;2023-04-23T07:35:23;0.82;;;0.70;;
37971;SDS011;23794;48.234;8.344;2023-04-23T07:37:51;4.15;;;1.13;;
37971;SDS011;23794;48.234;8.344;2023-04-23T07:40:22;1.50;;;0.88;;
37971;SDS011;23794;48.234;8.344;2023-04-23T07:42:49;1.00;;;0.68;;
37971;SDS011;23794;48.234;8.344;2023-04-23T07:45:17;1.33;;;0.85;;
37971;SDS011;23794;48.234;8.344;2023-04-23T07:47:44;1.05;;;0.88;;
37971;SDS011;23794;48.234;8.344;2023-04-23T07:50:12;3.65;;;1.10;;
37971;SDS011;23794;48.234;8.344;2023-04-23T07:52:39;3.70;;;1.95;;
37971;SDS011;23794;48.234;8.344;2023-04-23T07:55:06;2.38;;;1.48;;
37971;SDS011;23794;48.234;8.344;2023-04-23T07:57:34;2.78;;;1.10;;
37971;SDS011;23794;48.234;8.344;2023-04-23T08:00:01;1.25;;;0.98;;
37971;SDS011;23794;48.234;8.344;2023-04-23T08:02:37;2.63;;;1.13;;
37971;SDS011;23794;48.234;8.344;2023-04-23T08:05:03;2.03;;;1.00;;
37971;SDS011;23794;48.234;8.344;2023-04-23T08:07:30;1.15;;;1.00;;
37971;SDS011;23794;48.234;8.344;2023-04-23T08:09:57;1.92;;;0.98;;
37971;SDS011;23794;48.234;8.344;2023-04-23T08:12:28;2.20;;;0.93;;
37971;SDS011;23794;48.234;8.344;2023-04-23T08:14:55;2.00;;;1.00;;
37971;SDS011;23794;48.234;8.344;2023-04-23T08:17:28;2.13;;;1.33;;
37971;SDS011;23794;48.234;8.344;2023-04-23T08:19:55;2.15;;;1.20;;
37971;SDS011;23794;48.234;8.344;2023-04-23T08:22:22;2.25;;;1.20;;
37971;SDS011;23794;48.234;8.344;2023-04-23T08:24:48;1.80;;;0.80;;
37971;SDS011;23794;48.234;8.344;2023-04-23T08:27:15;1.80;;;1.15;;
37971;SDS011;23794;48.234;8.344;2023-04-23T08:29:42;1.65;;;0.95;;
37971;SDS011;23794;48.234;8.344;2023-04-23T08:32:08;1.77;;;1.13;;
37971;SDS011;23794;48.234;8.344;2023-04-23T08:34:35;1.30;;;1.20;;
37971;SDS011;23794;48.234;8.344;2023-04-23T08:37:02;3.10;;;1.67;;
37971;SDS011;23794;48.234;8.344;2023-04-23T08:39:31;3.08;;;1.20;;
37971;SDS011;23794;48.234;8.344;2023-04-23T08:44:48;2.65;;;0.88;;
37971;SDS011;23794;48.234;8.344;2023-04-23T08:47:18;2.03;;;0.80;;
37971;SDS011;23794;48.234;8.344;2023-04-23T08:49:50;0.98;;;0.82;;
37971;SDS011;23794;48.234;8.344;2023-04-23T08:52:22;1.75;;;1.10;;
37971;SDS011;23794;48.234;8.344;2023-04-23T08:54:53;1.65;;;1.13;;
37971;SDS011;23794;48.234;8.344;2023-04-23T08:57:23;2.08;;;0.90;;
37971;SDS011;23794;48.234;8.344;2023-04-23T08:59:50;2.88;;;0.98;;
37971;SDS011;23794;48.234;8.344;2023-04-23T09:02:17;1.80;;;0.90;;
37971;SDS011;23794;48.234;8.344;2023-04-23T09:04:44;2.25;;;1.23;;
37971;SDS011;23794;48.234;8.344;2023-04-23T09:07:14;5.95;;;1.67;;
37971;SDS011;23794;48.234;8.344;2023-04-23T09:09:41;1.23;;;0.93;;
37971;SDS011;23794;48.234;8.344;2023-04-23T09:12:08;1.10;;;1.00;;
37971;SDS011;23794;48.234;8.344;2023-04-23T09:14:35;1.30;;;0.90;;
37971;SDS011;23794;48.234;8.344;2023-04-23T09:17:02;1.52;;;1.02;;
37971;SDS011;23794;48.234;8.344;2023-04-23T09:19:29;1.00;;;0.70;;
37971;SDS011;23794;48.234;8.344;2023-04-23T09:21:56;6.03;;;1.42;;
37971;SDS011;23794;48.234;8.344;2023-04-23T09:24:24;1.85;;;1.42;;
37971;SDS011;23794;48.234;8.344;2023-04-23T09:26:51;1.50;;;0.80;;
37971;SDS011;23794;48.234;8.344;2023-04-23T09:29:19;1.88;;;0.90;;
37971;SDS011;23794;48.234;8.344;2023-04-23T09:31:48;2.15;;;0.80;;
37971;SDS011;23794;48.234;8.344;2023-04-23T09:34:23;0.95;;;0.65;;
37971;SDS011;23794;48.234;8.344;2023-04-23T09:36:50;1.52;;;0.95;;
37971;SDS011;23794;48.234;8.344;2023-04-23T09:39:20;3.00;;;1.00;;
37971;SDS011;23794;48.234;8.344;2023-04-23T09:41:47;1.35;;;0.80;;
37971;SDS011;23794;48.234;8.344;2023-04-23T09:44:18;1.67;;;0.90;;
37971;SDS011;23794;48.234;8.344;2023-04-23T09:46:47;1.40;;;1.10;;
37971;SDS011;23794;48.234;8.344;2023-04-23T09:49:14;1.17;;;0.90;;
37971;SDS011;23794;48.234;8.344;2023-04-23T09:51:42;8.27;;;1.60;;
37971;SDS011;23794;48.234;8.344;2023-04-23T09:54:15;1.10;;;0.80;;
37971;SDS011;23794;48.234;8.344;2023-04-23T09:56:53;1.42;;;0.80;;
37971;SDS011;23794;48.234;8.344;2023-04-23T09:59:23;2.63;;;1.45;;
37971;SDS011;23794;48.234;8.344;2023-04-23T10:02:10;1.20;;;0.80;;
37971;SDS011;23794;48.234;8.344;2023-04-23T10:04:38;4.65;;;1.10;;
37971;SDS011;23794;48.234;8.344;2023-04-23T10:07:05;1.27;;;0.82;;
37971;SDS011;23794;48.234;8.344;2023-04-23T10:09:45;2.65;;;1.20;;
37971;SDS011;23794;48.234;8.344;2023-04-23T10:12:12;1.67;;;1.00;;
37971;SDS011;23794;48.234;8.344;2023-04-23T10:14:42;2.13;;;0.90;;
37971;SDS011;23794;48.234;8.344;2023-04-23T10:17:11;3.63;;;1.05;;
37971;SDS011;23794;48.234;8.344;2023-04-23T10:19:38;2.85;;;1.08;;
37971;SDS011;23794;48.234;8.344;2023-04-23T10:22:09;0.88;;;0.77;;
37971;SDS011;23794;48.234;8.344;2023-04-23T10:24:50;1.52;;;0.80;;
37971;SDS011;23794;48.234;8.344;2023-04-23T10:27:22;1.20;;;0.82;;
37971;SDS011;23794;48.234;8.344;2023-04-23T10:30:12;1.70;;;0.82;;
37971;SDS011;23794;48.234;8.344;2023-04-23T10:32:39;1.67;;;1.00;;
37971;SDS011;23794;48.234;8.344;2023-04-23T10:35:07;1.60;;;1.02;;
37971;SDS011;23794;48.234;8.344;2023-04-23T10:37:35;1.05;;;0.70;;
37971;SDS011;23794;48.234;8.344;2023-04-23T10:40:09;1.33;;;1.05;;
37971;SDS011;23794;48.234;8.344;2023-04-23T10:42:39;2.33;;;1.02;;
37971;SDS011;23794;48.234;8.344;2023-04-23T10:45:13;2.92;;;1.10;;
37971;SDS011;23794;48.234;8.344;2023-04-23T10:52:52;1.17;;;1.00;;
37971;SDS011;23794;48.234;8.344;2023-04-23T10:55:21;2.30;;;0.90;;
37971;SDS011;23794;48.234;8.344;2023-04-23T11:03:30;1.17;;;0.85;;
37971;SDS011;23794;48.234;8.344;2023-04-23T11:06:14;1.48;;;0.77;;
37971;SDS011;23794;48.234;8.344;2023-04-23T11:08:52;1.92;;;0.82;;
37971;SDS011;23794;48.234;8.344;2023-04-23T11:11:23;1.55;;;0.73;;
37971;SDS011;23794;48.234;8.344;2023-04-23T11:14:11;2.65;;;1.48;;
37971;SDS011;23794;48.234;8.344;2023-04-23T11:16:41;1.02;;;0.70;;
37971;SDS011;23794;48.234;8.344;2023-04-23T11:19:09;1.35;;;1.00;;
37971;SDS011;23794;48.234;8.344;2023-04-23T11:24:30;1.65;;;0.90;;
37971;SDS011;23794;48.234;8.344;2023-04-23T11:27:09;1.80;;;0.98;;
37971;SDS011;23794;48.234;8.344;2023-04-23T11:29:41;1.85;;;0.90;;
37971;SDS011;23794;48.234;8.344;2023-04-23T11:32:10;1.52;;;0.80;;
37971;SDS011;23794;48.234;8.344;2023-04-23T11:34:44;5.03;;;0.82;;
37971;SDS011;23794;48.234;8.344;2023-04-23T11:37:12;2.90;;;1.08;;
37971;SDS011;23794;48.234;8.344;2023-04-23T11:39:40;2.22;;;0.88;;
37971;SDS011;23794;48.234;8.344;2023-04-23T11:42:13;1.48;;;0.60;;
37971;SDS011;23794;48.234;8.344;2023-04-23T11:44:41;2.20;;;1.17;;
37971;SDS011;23794;48.234;8.344;2023-04-23T11:47:10;1.73;;;0.63;;
37971;SDS011;23794;48.234;8.344;2023-04-23T11:49:38;1.63;;;0.80;;
37971;SDS011;23794;48.234;8.344;2023-04-23T11:52:08;1.15;;;0.77;;
37971;SDS011;23794;48.234;8.344;2023-04-23T11:54:35;2.80;;;0.88;;
37971;SDS011;23794;48.234;8.344;2023-04-23T11:57:02;4.22;;;1.45;;
37971;SDS011;23794;48.234;8.344;2023-04-23T11:59:29;1.48;;;0.77;;
37971;SDS011;23794;48.234;8.344;2023-04-23T12:01:57;2.30;;;0.77;;
37971;SDS011;23794;48.234;8.344;2023-04-23T12:04:25;2.08;;;0.82;;
37971;SDS011;23794;48.234;8.344;2023-04-23T12:06:57;1.88;;;0.80;;
37971;SDS011;23794;48.234;8.344;2023-04-23T12:09:25;2.72;;;0.80;;
37971;SDS011;23794;48.234;8.344;2023-04-23T12:11:53;2.80;;;0.85;;
37971;SDS011;23794;48.234;8.344;2023-04-23T12:14:24;1.55;;;0.75;;
37971;SDS011;23794;48.234;8.344;2023-04-23T12:16:54;1.33;;;0.70;;
37971;SDS011;23794;48.234;8.344;2023-04-23T12:19:28;2.03;;;0.50;;
37971;SDS011;23794;48.234;8.344;2023-04-23T12:24:25;1.65;;;0.80;;
37971;SDS011;23794;48.234;8.344;2023-04-23T12:27:15;3.22;;;1.30;;
37971;SDS011;23794;48.234;8.344;2023-04-23T12:29:45;2.22;;;1.10;;
37971;SDS011;23794;48.234;8.344;2023-04-23T12:32:13;2.55;;;1.00;;
37971;SDS011;23794;48.234;8.344;2023-04-23T12:34:53;1.60;;;0.85;;
37971;SDS011;23794;48.234;8.344;2023-04-23T12:37:23;1.40;;;0.70;;
37971;SDS011;23794;48.234;8.344;2023-04-23T12:39:51;0.73;;;0.60;;
37971;SDS011;23794;48.234;8.344;2023-04-23T12:42:19;1.13;;;0.63;;
37971;SDS011;23794;48.234;8.344;2023-04-23T12:44:46;1.40;;;0.80;;
37971;SDS011;23794;48.234;8.344;2023-04-23T12:47:13;1.02;;;0.70;;
37971;SDS011;23794;48.234;8.344;2023-04-23T12:49:45;3.33;;;0.80;;
37971;SDS011;23794;48.234;8.344;2023-04-23T12:52:14;1.73;;;0.90;;
37971;SDS011;23794;48.234;8.344;2023-04-23T12:54:41;1.15;;;0.68;;
37971;SDS011;23794;48.234;8.344;2023-04-23T12:57:10;2.25;;;0.80;;
37971;SDS011;23794;48.234;8.344;2023-04-23T12:59:37;1.38;;;0.75;;
37971;SDS011;23794;48.234;8.344;2023-04-23T13:02:04;2.78;;;0.90;;
37971;SDS011;23794;48.234;8.344;2023-04-23T13:04:33;2.15;;;0.75;;
37971;SDS011;23794;48.234;8.344;2023-04-23T13:07:01;1.75;;;0.70;;
37971;SDS011;23794;48.234;8.344;2023-04-23T13:09:28;1.55;;;0.70;;
37971;SDS011;23794;48.234;8.344;2023-04-23T13:11:55;6.38;;;1.48;;
37971;SDS011;23794;48.234;8.344;2023-04-23T13:14:22;2.28;;;0.77;;
37971;SDS011;23794;48.234;8.344;2023-04-23T13:16:49;2.72;;;0.75;;
37971;SDS011;23794;48.234;8.344;2023-04-23T13:19:16;2.53;;;0.80;;
37971;SDS011;23794;48.234;8.344;2023-04-23T13:21:43;2.00;;;0.70;;
37971;SDS011;23794;48.234;8.344;2023-04-23T13:24:10;2.38;;;0.80;;
37971;SDS011;23794;48.234;8.344;2023-04-23T13:26:37;2.33;;;0.80;;
37971;SDS011;23794;48.234;8.344;2023-04-23T13:29:03;2.47;;;0.82;;
37971;SDS011;23794;48.234;8.344;2023-04-23T13:31:30;1.60;;;0.60;;
37971;SDS011;23794;48.234;8.344;2023-04-23T13:33:57;2.17;;;1.08;;
37971;SDS011;23794;48.234;8.344;2023-04-23T13:36:24;2.17;;;0.80;;
37971;SDS011;23794;48.234;8.344;2023-04-23T13:38:51;1.98;;;0.80;;
37971;SDS011;23794;48.234;8.344;2023-04-23T13:41:17;1.63;;;0.90;;
37971;SDS011;23794;48.234;8.344;2023-04-23T13:43:44;1.98;;;0.95;;
37971;SDS011;23794;48.234;8.344;2023-04-23T13:46:11;1.33;;;0.75;;
37971;SDS011;23794;48.234;8.344;2023-04-23T13:48:40;1.70;;;0.93;;
37971;SDS011;23794;48.234;8.344;2023-04-23T13:51:06;2.20;;;0.70;;
37971;SDS011;23794;48.234;8.344;2023-04-23T13:53:53;1.58;;;0.85;;
37971;SDS011;23794;48.234;8.344;2023-04-23T13:56:19;2.22;;;0.85;;
37971;SDS011;23794;48.234;8.344;2023-04-23T13:58:46;2.25;;;1.10;;
37971;SDS011;23794;48.234;8.344;2023-04-23T14:01:14;4.32;;;1.23;;
37971;SDS011;23794;48.234;8.344;2023-04-23T14:03:41;2.90;;;1.00;;
37971;SDS011;23794;48.234;8.344;2023-04-23T14:06:07;2.30;;;0.88;;
37971;SDS011;23794;48.234;8.344;2023-04-23T14:08:34;3.17;;;0.80;;
37971;SDS011;23794;48.234;8.344;2023-04-23T14:11:03;1.38;;;0.77;;
37971;SDS011;23794;48.234;8.344;2023-04-23T14:13:30;3.15;;;0.90;;
37971;SDS011;23794;48.234;8.344;2023-04-23T14:15:58;2.17;;;1.00;;
37971;SDS011;23794;48.234;8.344;2023-04-23T14:18:28;2.65;;;0.80;;
37971;SDS011;23794;48.234;8.344;2023-04-23T14:20:55;1.33;;;0.75;;
37971;SDS011;23794;48.234;8.344;2023-04-23T14:25:56;10.23;;;1.33;;
37971;SDS011;23794;48.234;8.344;2023-04-23T14:30:55;2.70;;;0.93;;
37971;SDS011;23794;48.234;8.344;2023-04-23T14:33:22;2.85;;;1.00;;
37971;SDS011;23794;48.234;8.344;2023-04-23T14:35:49;2.30;;;1.15;;
37971;SDS011;23794;48.234;8.344;2023-04-23T14:38:17;4.45;;;1.13;;
37971;SDS011;23794;48.234;8.344;2023-04-23T14:40:44;2.70;;;1.20;;
37971;SDS011;23794;48.234;8.344;2023-04-23T14:43:10;1.63;;;1.00;;
37971;SDS011;23794;48.234;8.344;2023-04-23T14:45:41;2.17;;;0.70;;
37971;SDS011;23794;48.234;8.344;2023-04-23T14:48:08;3.70;;;0.80;;
37971;SDS011;23794;48.234;8.344;2023-04-23T14:50:34;6.45;;;1.08;;
37971;SDS011;23794;48.234;8.344;2023-04-23T14:53:01;1.55;;;0.70;;
37971;SDS011;23794;48.234;8.344;2023-04-23T14:55:32;2.97;;;0.82;;
37971;SDS011;23794;48.234;8.344;2023-04-23T14:57:59;2.80;;;1.35;;
37971;SDS011;23794;48.234;8.344;2023-04-23T15:00:26;1.35;;;0.90;;
37971;SDS011;23794;48.234;8.344;2023-04-23T15:02:53;2.20;;;0.65;;
37971;SDS011;23794;48.234;8.344;2023-04-23T15:05:19;2.78;;;0.50;;
37971;SDS011;23794;48.234;8.344;2023-04-23T15:07:46;1.80;;;0.50;;
37971;SDS011;23794;48.234;8.344;2023-04-23T15:10:13;1.05;;;0.60;;
37971;SDS011;23794;48.234;8.344;2023-04-23T15:18:10;1.08;;;0.60;;
37971;SDS011;23794;48.234;8.344;2023-04-23T15:20:38;1.13;;;0.70;;
37971;SDS011;23794;48.234;8.344;2023-04-23T15:23:05;2.08;;;0.60;;
37971;SDS011;23794;48.234;8.344;2023-04-23T15:25:32;2.15;;;0.80;;
37971;SDS011;23794;48.234;8.344;2023-04-23T15:27:59;1.52;;;0.80;;